Beti Zeruko Izarra — EA5281 — position and weather

sailwx.info

Track history (hours):
 
Tides and Currents Weather Stations Pressure Air Temp Water Temp Dewpoint Dewpoint Depression Visibility Wind Speed Wind Dir Waves Ship Positions

Beti Zeruko Izarra

Last reported at 2018-Feb-20 11:10 UTC. Time now 2018-Feb-20 21:56 UTC.
Position N 43°25' W 002°43'.

Length 16 m; draft 1.7 m.

Type: Fishing. MMSI: 224025280.

Date/timePositionNaut miles runAvg speedWind from/ knotsBaromVisibWave heightAir tempDewpointWater temp
2018-Feb-20 11:10N 43°25' W 002°43'0 0.3
2018-Feb-20 11:00N 43°25' W 002°43'0 0.0
2018-Feb-20 10:30N 43°25' W 002°43'0 0.0
2018-Feb-20 10:00N 43°25' W 002°43'0 0.0
2018-Feb-20 09:30N 43°25' W 002°43'0 0.0
2018-Feb-20 09:00N 43°25' W 002°43'0 0.0
2018-Feb-20 08:30N 43°25' W 002°43'0 0.0
2018-Feb-20 08:00N 43°25' W 002°43'0 0.0
2018-Feb-19 16:48N 43°25' W 002°43'0 0.0
2018-Feb-19 16:30N 43°25' W 002°43'0 0.0
2018-Feb-19 16:00N 43°25' W 002°43'0 0.0
2018-Feb-19 15:30N 43°25' W 002°43'1 2.9
2018-Feb-19 15:00N 43°26' W 002°42'1 2.9
2018-Feb-19 14:30N 43°28' W 002°42'0 0.9
2018-Feb-19 14:00N 43°27' W 002°42'2 3.8
2018-Feb-19 13:30N 43°26' W 002°40'0 0.8
2018-Feb-19 13:00N 43°25' W 002°40'0 0.2
2018-Feb-19 12:30N 43°25' W 002°40'1 2.5
2018-Feb-19 12:00N 43°26' W 002°41'0 0.9
2018-Feb-19 11:30N 43°27' W 002°41'1 1.0
2018-Feb-19 11:00N 43°27' W 002°42'1 1.6
2018-Feb-19 10:30N 43°28' W 002°43'0 0.5
2018-Feb-19 10:00N 43°27' W 002°42'1 1.6
2018-Feb-19 09:30N 43°28' W 002°44'0 0.6
2018-Feb-19 09:00N 43°28' W 002°44'1 1.2
2018-Feb-19 08:30N 43°27' W 002°44'1 2.3
2018-Feb-19 08:00N 43°26' W 002°43'1 2.0
2018-Feb-19 07:30N 43°25' W 002°42'1 1.4
2018-Feb-19 07:00N 43°25' W 002°43'0 0.0
2018-Feb-18 09:39N 43°25' W 002°43'0 0.0
2018-Feb-18 09:31N 43°25' W 002°43'2 4.5
2018-Feb-18 09:00N 43°26' W 002°40'1 1.4
2018-Feb-18 08:31N 43°26' W 002°41'1 2.8
2018-Feb-18 08:00N 43°28' W 002°42'2 3.3
2018-Feb-18 07:30N 43°27' W 002°43'2 3.1
2018-Feb-18 07:00N 43°25' W 002°43'0 0.0
2018-Feb-16 09:37N 43°25' W 002°43'0 0.0
2018-Feb-16 09:30N 43°25' W 002°43'0 0.0
2018-Feb-16 09:00N 43°25' W 002°43'0 0.0
2018-Feb-16 08:30N 43°25' W 002°43'0 0.0
2018-Feb-16 08:00N 43°25' W 002°43'0 0.0
2018-Feb-15 10:16N 43°25' W 002°43'0 0.0
2018-Feb-15 10:00N 43°25' W 002°43'0 0.0
2018-Feb-15 09:30N 43°25' W 002°43'0 0.0
2018-Feb-15 09:00N 43°25' W 002°43'0 0.0
2018-Feb-14 10:46N 43°25' W 002°43'0 0.0
2018-Feb-14 10:30N 43°25' W 002°43'0 0.0
2018-Feb-14 10:00N 43°25' W 002°43'0 0.0
2018-Feb-14 09:30N 43°25' W 002°43'0 0.0
2018-Feb-14 09:00N 43°25' W 002°43'0 0.0
2018-Feb-13 12:21N 43°25' W 002°43'0 0.0
2018-Feb-13 12:01N 43°25' W 002°43'0 0.0
2018-Feb-12 11:10N 43°25' W 002°43'0 0.0
2018-Feb-12 11:00N 43°25' W 002°43'0 0.0
2018-Feb-12 10:30N 43°25' W 002°43'0 0.0
2018-Feb-12 10:00N 43°25' W 002°43'0 0.0
2018-Feb-12 09:30N 43°25' W 002°43'0 0.0
2018-Feb-12 09:00N 43°25' W 002°43'0 0.0
2018-Feb-12 08:30N 43°25' W 002°43'0 0.0
2018-Feb-11 10:32N 43°25' W 002°43'0 0.0
2018-Feb-11 10:30N 43°25' W 002°43'  
Track history (hours):
 
Tides and Currents Weather Stations Pressure Air Temp Water Temp Dewpoint Dewpoint Depression Visibility Wind Speed Wind Dir Waves Ship Positions

Beti Zeruko Izarra

Last reported at 2018-Feb-20 11:10 UTC. Time now 2018-Feb-20 21:56 UTC.
Position N 43°25' W 002°43'.

Length 16 m; draft 1.7 m.

Type: Fishing. MMSI: 224025280.

Date/timePositionNaut miles runAvg speedWind from/ knotsBaromVisibWave heightAir tempDewpointWater temp
2018-Feb-20 11:10N 43°25' W 002°43'0 0.3
2018-Feb-20 11:00N 43°25' W 002°43'0 0.0
2018-Feb-20 10:30N 43°25' W 002°43'0 0.0
2018-Feb-20 10:00N 43°25' W 002°43'0 0.0
2018-Feb-20 09:30N 43°25' W 002°43'0 0.0
2018-Feb-20 09:00N 43°25' W 002°43'0 0.0
2018-Feb-20 08:30N 43°25' W 002°43'0 0.0
2018-Feb-20 08:00N 43°25' W 002°43'0 0.0
2018-Feb-19 16:48N 43°25' W 002°43'0 0.0
2018-Feb-19 16:30N 43°25' W 002°43'0 0.0
2018-Feb-19 16:00N 43°25' W 002°43'0 0.0
2018-Feb-19 15:30N 43°25' W 002°43'1 2.9
2018-Feb-19 15:00N 43°26' W 002°42'1 2.9
2018-Feb-19 14:30N 43°28' W 002°42'0 0.9
2018-Feb-19 14:00N 43°27' W 002°42'2 3.8
2018-Feb-19 13:30N 43°26' W 002°40'0 0.8
2018-Feb-19 13:00N 43°25' W 002°40'0 0.2
2018-Feb-19 12:30N 43°25' W 002°40'1 2.5
2018-Feb-19 12:00N 43°26' W 002°41'0 0.9
2018-Feb-19 11:30N 43°27' W 002°41'1 1.0
2018-Feb-19 11:00N 43°27' W 002°42'1 1.6
2018-Feb-19 10:30N 43°28' W 002°43'0 0.5
2018-Feb-19 10:00N 43°27' W 002°42'1 1.6
2018-Feb-19 09:30N 43°28' W 002°44'0 0.6
2018-Feb-19 09:00N 43°28' W 002°44'1 1.2
2018-Feb-19 08:30N 43°27' W 002°44'1 2.3
2018-Feb-19 08:00N 43°26' W 002°43'1 2.0
2018-Feb-19 07:30N 43°25' W 002°42'1 1.4
2018-Feb-19 07:00N 43°25' W 002°43'0 0.0
2018-Feb-18 09:39N 43°25' W 002°43'0 0.0
2018-Feb-18 09:31N 43°25' W 002°43'2 4.5
2018-Feb-18 09:00N 43°26' W 002°40'1 1.4
2018-Feb-18 08:31N 43°26' W 002°41'1 2.8
2018-Feb-18 08:00N 43°28' W 002°42'2 3.3
2018-Feb-18 07:30N 43°27' W 002°43'2 3.1
2018-Feb-18 07:00N 43°25' W 002°43'0 0.0
2018-Feb-16 09:37N 43°25' W 002°43'0 0.0
2018-Feb-16 09:30N 43°25' W 002°43'0 0.0
2018-Feb-16 09:00N 43°25' W 002°43'0 0.0
2018-Feb-16 08:30N 43°25' W 002°43'0 0.0
2018-Feb-16 08:00N 43°25' W 002°43'0 0.0
2018-Feb-15 10:16N 43°25' W 002°43'0 0.0
2018-Feb-15 10:00N 43°25' W 002°43'0 0.0
2018-Feb-15 09:30N 43°25' W 002°43'0 0.0
2018-Feb-15 09:00N 43°25' W 002°43'0 0.0
2018-Feb-14 10:46N 43°25' W 002°43'0 0.0
2018-Feb-14 10:30N 43°25' W 002°43'0 0.0
2018-Feb-14 10:00N 43°25' W 002°43'0 0.0
2018-Feb-14 09:30N 43°25' W 002°43'0 0.0
2018-Feb-14 09:00N 43°25' W 002°43'0 0.0
2018-Feb-13 12:21N 43°25' W 002°43'0 0.0
2018-Feb-13 12:01N 43°25' W 002°43'0 0.0
2018-Feb-12 11:10N 43°25' W 002°43'0 0.0
2018-Feb-12 11:00N 43°25' W 002°43'0 0.0
2018-Feb-12 10:30N 43°25' W 002°43'0 0.0
2018-Feb-12 10:00N 43°25' W 002°43'0 0.0
2018-Feb-12 09:30N 43°25' W 002°43'0 0.0
2018-Feb-12 09:00N 43°25' W 002°43'0 0.0
2018-Feb-12 08:30N 43°25' W 002°43'0 0.0
2018-Feb-11 10:32N 43°25' W 002°43'0 0.0
2018-Feb-11 10:30N 43°25' W 002°43'  

Dump ship's entire track history